Spring Time — WDG6608 — position and weather

sailwx.info

Track history (hours):
 
Tides and Currents Weather Stations Pressure Air Temp Water Temp Dewpoint Dewpoint Depression Visibility Wind Speed Wind Dir Waves Ship Positions

Spring Time

Owner: Spring Time 110,LLC, fort lauderdale, FL. More information available from US FCC via Universal Licensing System.

Last reported at 2018-Jun-06 20:01 UTC. Time now 2018-Jun-24 05:19 UTC.
Position N 41°10' W 072°19'.
Warning: this ship's position is 17 days out of date.

Length 35 m.

Type: Pleasure craft. MMSI: 303400000.

Date/timePositionNaut miles runAvg speedWind from/ knotsBaromVisibWave heightAir tempDewpointWater temp
2018-Jun-06 20:01N 41°10' W 072°19'017.8
2018-Jun-06 19:59N 41°10' W 072°20'918.0
2018-Jun-06 19:30N 41°08' W 072°31'7017.6
2018-Jun-06 15:33N 40°45' W 073°58'110.2
2018-Jun-06 15:27N 40°44' W 073°58'4 9.0
2018-Jun-06 15:00N 40°41' W 074°01'0 0.9
2018-Jun-06 14:30N 40°40' W 074°01'0 0.0
2018-Jun-06 14:00N 40°40' W 074°01'2 4.9
2018-Jun-06 13:30N 40°43' W 074°02'0 0.8
2018-Jun-06 12:59N 40°43' W 074°03'0 0.0
2018-Jun-06 12:29N 40°43' W 074°03'0 0.0
2018-Jun-06 11:59N 40°43' W 074°03'0 0.0
2018-Jun-06 11:29N 40°43' W 074°03'0 0.0
2018-Jun-06 10:59N 40°43' W 074°03'0 0.0
2018-Jun-06 10:29N 40°43' W 074°03'0 0.0
2018-Jun-06 09:59N 40°43' W 074°03'0 0.0
2018-Jun-06 09:29N 40°43' W 074°03'0 0.0
2018-Jun-06 08:53N 40°43' W 074°03'0 0.0
2018-Jun-06 08:26N 40°43' W 074°03'0 0.0
2018-Jun-06 07:59N 40°43' W 074°03'0 0.0
2018-Jun-06 07:29N 40°43' W 074°03'0 0.0
2018-Jun-06 06:59N 40°43' W 074°03'0 0.0
2018-Jun-06 06:26N 40°43' W 074°03'0 0.0
2018-Jun-06 05:59N 40°43' W 074°03'0 0.0
2018-Jun-06 05:29N 40°43' W 074°03'0 0.0
2018-Jun-06 04:59N 40°43' W 074°03'0 0.0
2018-Jun-06 04:29N 40°43' W 074°03'0 0.0
2018-Jun-06 03:59N 40°43' W 074°03'0 0.0
2018-Jun-06 03:29N 40°43' W 074°03'0 0.0
2018-Jun-06 02:59N 40°43' W 074°03'0 0.0
2018-Jun-06 02:29N 40°43' W 074°03'0 0.0
2018-Jun-06 01:59N 40°43' W 074°03'0 0.0
2018-Jun-06 01:29N 40°43' W 074°03'1 1.2
2018-Jun-06 01:01N 40°43' W 074°02'5417.2
2018-Jun-05 21:52N 39°48' W 074°00'718.9
2018-Jun-05 21:30N 39°42' W 074°04'20117.6
2018-Jun-05 10:06N 36°52' W 076°20'1 8.8
2018-Jun-05 10:00N 36°52' W 076°19'1 0.0
2018-Jun-03 22:05N 36°51' W 076°18'0 0.0
2018-Jun-03 21:05N 36°51' W 076°18'0 0.0
2018-Jun-03 20:41N 36°51' W 076°18'0 0.0
2018-Jun-03 19:44N 36°51' W 076°18'0 0.0
2018-Jun-03 19:29N 36°51' W 076°18'0 0.0
2018-Jun-03 18:53N 36°51' W 076°18'0 0.0
2018-Jun-03 18:29N 36°51' W 076°18'0 0.0
2018-Jun-03 17:59N 36°51' W 076°18'0 0.0
2018-Jun-03 17:29N 36°51' W 076°18'0 0.0
2018-Jun-03 16:17N 36°51' W 076°18'0 0.0
2018-Jun-03 15:59N 36°51' W 076°18'0 0.0
2018-Jun-03 15:29N 36°51' W 076°18'0 0.0
2018-Jun-03 14:59N 36°51' W 076°18'0 0.0
2018-Jun-03 14:29N 36°51' W 076°18'0 0.0
2018-Jun-03 13:56N 36°51' W 076°18'0 0.0
2018-Jun-03 13:29N 36°51' W 076°18'0 0.0
2018-Jun-03 12:41N 36°51' W 076°18'0 0.0
2018-Jun-03 12:29N 36°51' W 076°18'0 0.0
2018-Jun-03 11:59N 36°51' W 076°18'0 0.0
2018-Jun-03 11:02N 36°51' W 076°18'0 0.0
2018-Jun-03 10:56N 36°51' W 076°18'0 0.0
2018-Jun-03 10:26N 36°51' W 076°18'0 0.0
2018-Jun-03 09:59N 36°51' W 076°18'0 0.0
2018-Jun-03 09:29N 36°51' W 076°18'0 0.0
2018-Jun-03 08:59N 36°51' W 076°18'0 0.0
2018-Jun-03 08:29N 36°51' W 076°18'0 0.0
2018-Jun-03 07:56N 36°51' W 076°18'0 0.0
2018-Jun-03 07:29N 36°51' W 076°18'0 0.0
2018-Jun-03 06:59N 36°51' W 076°18'0 0.0
2018-Jun-03 06:29N 36°51' W 076°18'0 0.0
2018-Jun-03 05:59N 36°51' W 076°18'0 0.0
2018-Jun-03 05:29N 36°51' W 076°18'0 0.0
2018-Jun-03 04:59N 36°51' W 076°18'0 0.0
2018-Jun-03 04:29N 36°51' W 076°18'0 0.0
2018-Jun-03 03:59N 36°51' W 076°18'0 0.0
2018-Jun-03 03:26N 36°51' W 076°18'0 0.0
2018-Jun-03 02:59N 36°51' W 076°18'0 0.0
2018-Jun-03 02:20N 36°51' W 076°18'0 0.0
2018-Jun-03 01:59N 36°51' W 076°18'0 0.0
2018-Jun-03 01:29N 36°51' W 076°18'0 0.0
2018-Jun-03 00:59N 36°51' W 076°18'0 0.0
2018-Jun-03 00:29N 36°51' W 076°18'0 0.0
2018-Jun-02 23:59N 36°51' W 076°18'0 0.0
2018-Jun-02 23:29N 36°51' W 076°18'0 0.0
2018-Jun-02 22:59N 36°51' W 076°18'0 0.0
2018-Jun-02 22:29N 36°51' W 076°18'0 0.0
2018-Jun-02 21:47N 36°51' W 076°18'0 0.0
2018-Jun-02 21:29N 36°51' W 076°18'0 0.0
2018-Jun-02 20:59N 36°51' W 076°18'0 0.0
2018-Jun-02 20:29N 36°51' W 076°18'0 0.0
2018-Jun-02 19:50N 36°51' W 076°18'0 0.0
2018-Jun-02 19:29N 36°51' W 076°18'0 0.0
2018-Jun-02 18:47N 36°51' W 076°18'0 0.0
2018-Jun-02 18:29N 36°51' W 076°18'0 0.0
2018-Jun-02 17:59N 36°51' W 076°18'0 0.0
2018-Jun-02 17:23N 36°51' W 076°18'0 0.1
2018-Jun-02 15:37N 36°51' W 076°18'1 5.8
2018-Jun-02 15:29N 36°50' W 076°18'3 6.8
2018-Jun-02 15:00N 36°47' W 076°18'3 6.2
2018-Jun-02 14:30N 36°44' W 076°16'2 3.4
2018-Jun-02 14:00N 36°43' W 076°14'113 4.4
2018-Jun-01 12:28N 34°53' W 076°41'3 7.0
2018-Jun-01 12:00N 34°50' W 076°41'510.8
2018-Jun-01 11:31N 34°44' W 076°41'2 3.1
2018-Jun-01 11:00N 34°43' W 076°40'0 0.2
2018-Jun-01 10:29N 34°43' W 076°40'0 0.0
2018-Jun-01 09:59N 34°43' W 076°40'0 0.0
2018-Jun-01 09:29N 34°43' W 076°40'0 0.0
2018-Jun-01 08:59N 34°43' W 076°40'0 0.0
2018-Jun-01 08:29N 34°43' W 076°40'0 0.0
2018-Jun-01 07:59N 34°43' W 076°40'0 0.0
2018-Jun-01 07:26N 34°43' W 076°40'0 0.0
2018-Jun-01 06:59N 34°43' W 076°40'0 0.0
2018-Jun-01 06:29N 34°43' W 076°40'0 0.0
2018-Jun-01 05:59N 34°43' W 076°40'0 0.0
2018-Jun-01 05:29N 34°43' W 076°40'0 0.0
2018-Jun-01 04:59N 34°43' W 076°40'0 0.0
2018-Jun-01 04:29N 34°43' W 076°40'0 0.0
2018-Jun-01 03:59N 34°43' W 076°40'0 0.0
2018-Jun-01 03:29N 34°43' W 076°40'0 0.0
2018-Jun-01 02:59N 34°43' W 076°40'0 0.0
2018-Jun-01 02:29N 34°43' W 076°40'0 0.0
2018-Jun-01 01:59N 34°43' W 076°40'0 0.0
2018-Jun-01 01:29N 34°43' W 076°40'0 0.0
2018-Jun-01 00:59N 34°43' W 076°40'0 0.0
2018-Jun-01 00:29N 34°43' W 076°40'0 0.0
2018-May-31 23:59N 34°43' W 076°40'0 0.0
2018-May-31 23:29N 34°43' W 076°40'0 0.0
2018-May-31 22:59N 34°43' W 076°40'0 0.0
2018-May-31 22:29N 34°43' W 076°40'0 0.0
2018-May-31 22:00N 34°43' W 076°40'0 0.0
2018-May-31 21:30N 34°43' W 076°40'0 0.0
2018-May-31 21:00N 34°43' W 076°40'0 0.0
2018-May-31 20:30N 34°43' W 076°40'0 0.1
2018-May-31 20:00N 34°43' W 076°40'4 8.6
2018-May-31 19:30N 34°39' W 076°41'53616.9
2018-May-30 11:51N 26°12' W 080°03'515.7
2018-May-30 11:30N 26°07' W 080°05'2 3.7
2018-May-30 11:01N 26°07' W 080°07'2 3.5
2018-May-30 10:30N 26°08' W 080°06'1 2.9
2018-May-30 10:00N 26°10' W 080°06'0 0.0
2018-May-30 09:28N 26°10' W 080°06'  
Track history (hours):
 
Tides and Currents Weather Stations Pressure Air Temp Water Temp Dewpoint Dewpoint Depression Visibility Wind Speed Wind Dir Waves Ship Positions

Spring Time

Owner: Spring Time 110,LLC, fort lauderdale, FL. More information available from US FCC via Universal Licensing System.

Last reported at 2018-Jun-06 20:01 UTC. Time now 2018-Jun-24 05:19 UTC.
Position N 41°10' W 072°19'.
Warning: this ship's position is 17 days out of date.

Length 35 m.

Type: Pleasure craft. MMSI: 303400000.

Date/timePositionNaut miles runAvg speedWind from/ knotsBaromVisibWave heightAir tempDewpointWater temp
2018-Jun-06 20:01N 41°10' W 072°19'017.8
2018-Jun-06 19:59N 41°10' W 072°20'918.0
2018-Jun-06 19:30N 41°08' W 072°31'7017.6
2018-Jun-06 15:33N 40°45' W 073°58'110.2
2018-Jun-06 15:27N 40°44' W 073°58'4 9.0
2018-Jun-06 15:00N 40°41' W 074°01'0 0.9
2018-Jun-06 14:30N 40°40' W 074°01'0 0.0
2018-Jun-06 14:00N 40°40' W 074°01'2 4.9
2018-Jun-06 13:30N 40°43' W 074°02'0 0.8
2018-Jun-06 12:59N 40°43' W 074°03'0 0.0
2018-Jun-06 12:29N 40°43' W 074°03'0 0.0
2018-Jun-06 11:59N 40°43' W 074°03'0 0.0
2018-Jun-06 11:29N 40°43' W 074°03'0 0.0
2018-Jun-06 10:59N 40°43' W 074°03'0 0.0
2018-Jun-06 10:29N 40°43' W 074°03'0 0.0
2018-Jun-06 09:59N 40°43' W 074°03'0 0.0
2018-Jun-06 09:29N 40°43' W 074°03'0 0.0
2018-Jun-06 08:53N 40°43' W 074°03'0 0.0
2018-Jun-06 08:26N 40°43' W 074°03'0 0.0
2018-Jun-06 07:59N 40°43' W 074°03'0 0.0
2018-Jun-06 07:29N 40°43' W 074°03'0 0.0
2018-Jun-06 06:59N 40°43' W 074°03'0 0.0
2018-Jun-06 06:26N 40°43' W 074°03'0 0.0
2018-Jun-06 05:59N 40°43' W 074°03'0 0.0
2018-Jun-06 05:29N 40°43' W 074°03'0 0.0
2018-Jun-06 04:59N 40°43' W 074°03'0 0.0
2018-Jun-06 04:29N 40°43' W 074°03'0 0.0
2018-Jun-06 03:59N 40°43' W 074°03'0 0.0
2018-Jun-06 03:29N 40°43' W 074°03'0 0.0
2018-Jun-06 02:59N 40°43' W 074°03'0 0.0
2018-Jun-06 02:29N 40°43' W 074°03'0 0.0
2018-Jun-06 01:59N 40°43' W 074°03'0 0.0
2018-Jun-06 01:29N 40°43' W 074°03'1 1.2
2018-Jun-06 01:01N 40°43' W 074°02'5417.2
2018-Jun-05 21:52N 39°48' W 074°00'718.9
2018-Jun-05 21:30N 39°42' W 074°04'20117.6
2018-Jun-05 10:06N 36°52' W 076°20'1 8.8
2018-Jun-05 10:00N 36°52' W 076°19'1 0.0
2018-Jun-03 22:05N 36°51' W 076°18'0 0.0
2018-Jun-03 21:05N 36°51' W 076°18'0 0.0
2018-Jun-03 20:41N 36°51' W 076°18'0 0.0
2018-Jun-03 19:44N 36°51' W 076°18'0 0.0
2018-Jun-03 19:29N 36°51' W 076°18'0 0.0
2018-Jun-03 18:53N 36°51' W 076°18'0 0.0
2018-Jun-03 18:29N 36°51' W 076°18'0 0.0
2018-Jun-03 17:59N 36°51' W 076°18'0 0.0
2018-Jun-03 17:29N 36°51' W 076°18'0 0.0
2018-Jun-03 16:17N 36°51' W 076°18'0 0.0
2018-Jun-03 15:59N 36°51' W 076°18'0 0.0
2018-Jun-03 15:29N 36°51' W 076°18'0 0.0
2018-Jun-03 14:59N 36°51' W 076°18'0 0.0
2018-Jun-03 14:29N 36°51' W 076°18'0 0.0
2018-Jun-03 13:56N 36°51' W 076°18'0 0.0
2018-Jun-03 13:29N 36°51' W 076°18'0 0.0
2018-Jun-03 12:41N 36°51' W 076°18'0 0.0
2018-Jun-03 12:29N 36°51' W 076°18'0 0.0
2018-Jun-03 11:59N 36°51' W 076°18'0 0.0
2018-Jun-03 11:02N 36°51' W 076°18'0 0.0
2018-Jun-03 10:56N 36°51' W 076°18'0 0.0
2018-Jun-03 10:26N 36°51' W 076°18'0 0.0
2018-Jun-03 09:59N 36°51' W 076°18'0 0.0
2018-Jun-03 09:29N 36°51' W 076°18'0 0.0
2018-Jun-03 08:59N 36°51' W 076°18'0 0.0
2018-Jun-03 08:29N 36°51' W 076°18'0 0.0
2018-Jun-03 07:56N 36°51' W 076°18'0 0.0
2018-Jun-03 07:29N 36°51' W 076°18'0 0.0
2018-Jun-03 06:59N 36°51' W 076°18'0 0.0
2018-Jun-03 06:29N 36°51' W 076°18'0 0.0
2018-Jun-03 05:59N 36°51' W 076°18'0 0.0
2018-Jun-03 05:29N 36°51' W 076°18'0 0.0
2018-Jun-03 04:59N 36°51' W 076°18'0 0.0
2018-Jun-03 04:29N 36°51' W 076°18'0 0.0
2018-Jun-03 03:59N 36°51' W 076°18'0 0.0
2018-Jun-03 03:26N 36°51' W 076°18'0 0.0
2018-Jun-03 02:59N 36°51' W 076°18'0 0.0
2018-Jun-03 02:20N 36°51' W 076°18'0 0.0
2018-Jun-03 01:59N 36°51' W 076°18'0 0.0
2018-Jun-03 01:29N 36°51' W 076°18'0 0.0
2018-Jun-03 00:59N 36°51' W 076°18'0 0.0
2018-Jun-03 00:29N 36°51' W 076°18'0 0.0
2018-Jun-02 23:59N 36°51' W 076°18'0 0.0
2018-Jun-02 23:29N 36°51' W 076°18'0 0.0
2018-Jun-02 22:59N 36°51' W 076°18'0 0.0
2018-Jun-02 22:29N 36°51' W 076°18'0 0.0
2018-Jun-02 21:47N 36°51' W 076°18'0 0.0
2018-Jun-02 21:29N 36°51' W 076°18'0 0.0
2018-Jun-02 20:59N 36°51' W 076°18'0 0.0
2018-Jun-02 20:29N 36°51' W 076°18'0 0.0
2018-Jun-02 19:50N 36°51' W 076°18'0 0.0
2018-Jun-02 19:29N 36°51' W 076°18'0 0.0
2018-Jun-02 18:47N 36°51' W 076°18'0 0.0
2018-Jun-02 18:29N 36°51' W 076°18'0 0.0
2018-Jun-02 17:59N 36°51' W 076°18'0 0.0
2018-Jun-02 17:23N 36°51' W 076°18'0 0.1
2018-Jun-02 15:37N 36°51' W 076°18'1 5.8
2018-Jun-02 15:29N 36°50' W 076°18'3 6.8
2018-Jun-02 15:00N 36°47' W 076°18'3 6.2
2018-Jun-02 14:30N 36°44' W 076°16'2 3.4
2018-Jun-02 14:00N 36°43' W 076°14'113 4.4
2018-Jun-01 12:28N 34°53' W 076°41'3 7.0
2018-Jun-01 12:00N 34°50' W 076°41'510.8
2018-Jun-01 11:31N 34°44' W 076°41'2 3.1
2018-Jun-01 11:00N 34°43' W 076°40'0 0.2
2018-Jun-01 10:29N 34°43' W 076°40'0 0.0
2018-Jun-01 09:59N 34°43' W 076°40'0 0.0
2018-Jun-01 09:29N 34°43' W 076°40'0 0.0
2018-Jun-01 08:59N 34°43' W 076°40'0 0.0
2018-Jun-01 08:29N 34°43' W 076°40'0 0.0
2018-Jun-01 07:59N 34°43' W 076°40'0 0.0
2018-Jun-01 07:26N 34°43' W 076°40'0 0.0
2018-Jun-01 06:59N 34°43' W 076°40'0 0.0
2018-Jun-01 06:29N 34°43' W 076°40'0 0.0
2018-Jun-01 05:59N 34°43' W 076°40'0 0.0
2018-Jun-01 05:29N 34°43' W 076°40'0 0.0
2018-Jun-01 04:59N 34°43' W 076°40'0 0.0
2018-Jun-01 04:29N 34°43' W 076°40'0 0.0
2018-Jun-01 03:59N 34°43' W 076°40'0 0.0
2018-Jun-01 03:29N 34°43' W 076°40'0 0.0
2018-Jun-01 02:59N 34°43' W 076°40'0 0.0
2018-Jun-01 02:29N 34°43' W 076°40'0 0.0
2018-Jun-01 01:59N 34°43' W 076°40'0 0.0
2018-Jun-01 01:29N 34°43' W 076°40'0 0.0
2018-Jun-01 00:59N 34°43' W 076°40'0 0.0
2018-Jun-01 00:29N 34°43' W 076°40'0 0.0
2018-May-31 23:59N 34°43' W 076°40'0 0.0
2018-May-31 23:29N 34°43' W 076°40'0 0.0
2018-May-31 22:59N 34°43' W 076°40'0 0.0
2018-May-31 22:29N 34°43' W 076°40'0 0.0
2018-May-31 22:00N 34°43' W 076°40'0 0.0
2018-May-31 21:30N 34°43' W 076°40'0 0.0
2018-May-31 21:00N 34°43' W 076°40'0 0.0
2018-May-31 20:30N 34°43' W 076°40'0 0.1
2018-May-31 20:00N 34°43' W 076°40'4 8.6
2018-May-31 19:30N 34°39' W 076°41'53616.9
2018-May-30 11:51N 26°12' W 080°03'515.7
2018-May-30 11:30N 26°07' W 080°05'2 3.7
2018-May-30 11:01N 26°07' W 080°07'2 3.5
2018-May-30 10:30N 26°08' W 080°06'1 2.9
2018-May-30 10:00N 26°10' W 080°06'0 0.0
2018-May-30 09:28N 26°10' W 080°06'  

Dump ship's entire track history